createdAt,value
2019-03-05T00:00:54.438Z,69.78
2019-03-05T00:03:23.052Z,69.66
2019-03-05T00:06:11.393Z,68.59
2019-03-05T00:08:59.318Z,67.15
2019-03-05T00:11:27.913Z,68.29
2019-03-05T00:13:56.774Z,67.28
2019-03-05T00:19:13.025Z,69.35
2019-03-05T00:25:07.852Z,68.67
2019-03-05T00:31:06.127Z,69.08
2019-03-05T00:34:13.505Z,69.53
2019-03-05T00:37:03.620Z,69.69
2019-03-05T00:40:10.760Z,69.00
2019-03-05T00:43:17.882Z,69.02
2019-03-05T00:46:07.788Z,68.29
2019-03-05T00:49:14.896Z,68.78
2019-03-05T00:52:22.038Z,68.00
2019-03-05T00:55:12.543Z,66.15
2019-03-05T00:58:19.645Z,67.08
2019-03-05T01:01:26.769Z,68.42
2019-03-05T01:09:56.603Z,65.32
2019-03-05T01:13:05.065Z,64.87
2019-03-05T01:16:13.532Z,65.40
2019-03-05T01:19:01.477Z,68.34
2019-03-05T01:21:30.117Z,67.43
2019-03-05T01:23:58.956Z,67.15
2019-03-05T01:26:27.682Z,66.99
2019-03-05T01:32:03.005Z,67.46
2019-03-05T01:34:50.616Z,67.32
2019-03-05T01:37:19.255Z,68.78
2019-03-05T01:40:06.867Z,67.79
2019-03-05T01:42:54.967Z,65.66
2019-03-05T01:45:23.828Z,65.68
2019-03-05T01:47:53.032Z,66.29
2019-03-05T01:50:21.927Z,66.09
2019-03-05T01:52:50.753Z,66.29
2019-03-05T01:55:19.844Z,65.86
2019-03-05T02:03:29.896Z,64.18
2019-03-05T02:09:05.588Z,63.74
2019-03-05T02:11:34.464Z,61.22
2019-03-05T02:16:38.524Z,64.82
2019-03-05T02:19:45.649Z,63.49
2019-03-05T02:22:35.148Z,63.06
2019-03-05T02:25:45.434Z,63.34
2019-03-05T02:28:52.561Z,62.65
2019-03-05T02:31:59.705Z,65.40
2019-03-05T02:35:06.813Z,63.74
2019-03-05T02:41:12.329Z,64.13
2019-03-05T02:44:19.440Z,66.31
2019-03-05T02:47:26.562Z,63.10
2019-03-05T02:50:33.707Z,63.04
2019-03-05T02:53:40.836Z,61.46
2019-03-05T02:56:37.909Z,61.55
2019-03-05T02:59:05.287Z,64.78
2019-03-05T03:01:53.084Z,62.94
2019-03-05T03:05:01.518Z,67.68
2019-03-05T03:08:10.127Z,68.09
2019-03-05T03:16:01.354Z,70.85
2019-03-05T03:21:04.091Z,70.28
2019-03-05T03:23:51.947Z,70.59
2019-03-05T03:29:08.510Z,71.56
2019-03-05T03:36:59.188Z,71.12
2019-03-05T03:47:10.464Z,69.66
2019-03-05T03:52:13.046Z,70.33
2019-03-05T03:54:41.980Z,71.05
2019-03-05T03:57:10.638Z,71.96
2019-03-05T03:59:39.515Z,70.58
2019-03-05T04:02:08.117Z,69.63
2019-03-05T04:04:37.012Z,70.87
2019-03-05T04:07:05.678Z,70.97
2019-03-05T04:14:56.414Z,68.62
2019-03-05T04:17:25.326Z,67.34
2019-03-05T04:19:55.321Z,68.54
2019-03-05T04:22:24.017Z,67.53
2019-03-05T04:43:06.820Z,67.29
2019-03-05T04:46:14.564Z,69.62
2019-03-05T04:51:44.718Z,68.96
2019-03-05T04:54:13.345Z,69.43
2019-03-05T04:57:01.273Z,68.66
2019-03-05T04:59:30.101Z,68.79
2019-03-05T05:01:58.955Z,67.65
2019-03-05T05:07:01.820Z,68.00
2019-03-05T05:09:30.429Z,67.75
2019-03-05T05:15:47.728Z,68.58
2019-03-05T05:25:58.536Z,67.32
2019-03-05T05:31:01.108Z,66.81
2019-03-05T05:41:45.958Z,65.52
2019-03-05T05:46:48.630Z,65.73
2019-03-05T05:49:36.457Z,65.83
2019-03-05T05:52:05.103Z,66.94
2019-03-05T05:57:41.488Z,67.13
2019-03-05T06:00:12.603Z,66.61
2019-03-05T06:02:41.296Z,66.67
2019-03-05T06:08:18.315Z,66.96
2019-03-05T06:10:47.103Z,66.46
2019-03-05T06:13:35.194Z,65.14
2019-03-05T06:16:03.789Z,65.80
2019-03-05T06:23:59.746Z,64.78
2019-03-05T06:26:28.592Z,62.10
2019-03-05T06:36:55.825Z,63.65
2019-03-05T06:49:55.292Z,66.10
2019-03-05T06:52:24.254Z,65.15
2019-03-05T06:54:53.199Z,65.45
2019-03-05T07:23:44.914Z,69.46
2019-03-05T07:26:13.590Z,68.11
2019-03-05T07:28:42.309Z,69.21
2019-03-05T07:31:11.124Z,68.83
2019-03-05T07:33:40.167Z,66.81
2019-03-05T07:36:08.767Z,65.98
2019-03-05T07:38:37.524Z,65.04
2019-03-05T07:41:06.108Z,67.55
2019-03-05T07:43:36.695Z,66.97
2019-03-05T07:46:05.429Z,65.93
2019-03-05T07:48:34.522Z,67.45
2019-03-05T07:51:03.403Z,69.28
2019-03-05T07:53:32.955Z,68.65
2019-03-05T07:56:01.556Z,68.83
2019-03-05T07:58:30.439Z,65.65
2019-03-05T08:00:59.051Z,68.93
2019-03-05T08:03:27.691Z,69.72
2019-03-05T08:05:56.288Z,67.44
2019-03-05T08:09:00.999Z,69.42
2019-03-05T08:11:31.758Z,66.36
2019-03-05T08:14:25.834Z,68.45
2019-03-05T08:16:54.669Z,67.56
2019-03-05T08:19:23.961Z,67.55
2019-03-05T08:21:52.668Z,68.15
2019-03-05T08:24:21.375Z,69.19
2019-03-05T08:26:50.302Z,68.56
2019-03-05T08:29:19.325Z,68.86
2019-03-05T08:31:48.080Z,69.45
2019-03-05T08:34:16.712Z,67.61
2019-03-05T08:36:45.735Z,70.62
2019-03-05T08:39:14.609Z,67.46
2019-03-05T08:41:43.808Z,67.63
2019-03-05T08:44:12.456Z,66.88
2019-03-05T08:46:41.104Z,65.33
2019-03-05T08:49:09.759Z,65.04
2019-03-05T08:51:38.484Z,65.17
2019-03-05T08:54:07.936Z,63.32
2019-03-05T08:56:36.630Z,64.93
2019-03-05T08:59:05.373Z,62.56
2019-03-05T09:01:33.998Z,64.94
2019-03-05T09:04:02.617Z,64.23
2019-03-05T09:06:31.311Z,64.48
2019-03-05T09:08:59.887Z,63.53
2019-03-05T09:11:28.785Z,64.67
2019-03-05T09:13:57.466Z,64.83
2019-03-05T09:16:26.160Z,67.17
2019-03-05T09:18:55.168Z,65.33
2019-03-05T09:21:23.796Z,64.36
2019-03-05T09:23:52.437Z,61.42
2019-03-05T09:26:21.222Z,65.57
2019-03-05T09:28:49.881Z,64.65
2019-03-05T09:31:18.603Z,66.53
2019-03-05T09:33:47.499Z,66.61
2019-03-05T09:36:16.132Z,65.82
2019-03-05T09:38:44.746Z,63.17
2019-03-05T09:41:16.538Z,63.93
2019-03-05T09:43:45.253Z,65.74
2019-03-05T09:46:13.931Z,64.87
2019-03-05T09:48:42.972Z,66.31
2019-03-05T09:51:11.683Z,65.34
2019-03-05T09:53:40.519Z,66.04
2019-03-05T09:56:09.265Z,66.73
2019-03-05T09:58:37.919Z,67.10
2019-03-05T10:01:06.891Z,67.11
2019-03-05T10:03:35.641Z,65.26
2019-03-05T10:06:04.410Z,65.28
2019-03-05T10:08:33.073Z,64.75
2019-03-05T10:11:02.499Z,64.60
2019-03-05T10:13:31.329Z,64.04
2019-03-05T10:16:00.188Z,64.97
2019-03-05T10:18:28.797Z,64.76
2019-03-05T10:20:57.394Z,64.21
2019-03-05T10:23:26.306Z,67.31
2019-03-05T10:25:55.532Z,66.11
2019-03-05T10:28:24.445Z,66.52
2019-03-05T10:30:53.263Z,65.99
2019-03-05T10:33:22.001Z,65.42
2019-03-05T10:35:50.769Z,67.02
2019-03-05T10:38:19.792Z,67.14
2019-03-05T10:40:48.802Z,67.10
2019-03-05T10:43:17.412Z,67.62
2019-03-05T10:45:46.600Z,68.00
2019-03-05T10:48:16.519Z,66.16
2019-03-05T10:50:45.196Z,66.28
2019-03-05T10:53:17.298Z,67.10
2019-03-05T10:55:45.909Z,66.49
2019-03-05T10:58:15.399Z,66.92
2019-03-05T11:00:44.797Z,65.55
2019-03-05T11:03:13.941Z,64.76
2019-03-05T11:05:43.227Z,65.10
2019-03-05T11:08:16.534Z,63.99
2019-03-05T11:10:45.150Z,63.24
2019-03-05T11:13:13.842Z,62.98
2019-03-05T11:15:42.613Z,64.74
2019-03-05T11:18:11.642Z,64.33
2019-03-05T11:20:41.058Z,62.88
2019-03-05T11:23:11.703Z,62.62
2019-03-05T11:25:40.552Z,63.18
2019-03-05T11:28:09.436Z,60.59
2019-03-05T11:30:38.753Z,63.90
2019-03-05T11:33:07.521Z,62.94
2019-03-05T11:35:36.516Z,65.61
2019-03-05T11:38:05.473Z,65.74
2019-03-05T11:40:34.216Z,66.19
2019-03-05T11:43:14.001Z,64.23
2019-03-05T11:45:44.272Z,64.51
2019-03-05T11:48:13.151Z,62.53
2019-03-05T11:50:41.833Z,64.48
2019-03-05T11:53:10.484Z,63.26
2019-03-05T11:55:39.455Z,60.41
2019-03-05T11:58:08.115Z,60.72
2019-03-05T12:00:58.760Z,59.85
2019-03-05T12:03:27.414Z,58.22
2019-03-05T12:05:56.301Z,58.87
2019-03-05T12:08:25.209Z,60.32
2019-03-05T12:10:54.161Z,60.97
2019-03-05T12:13:22.778Z,62.64
2019-03-05T12:15:51.445Z,59.58
2019-03-05T12:18:20.415Z,60.52
2019-03-05T12:20:49.415Z,59.42
2019-03-05T12:23:18.026Z,58.67
2019-03-05T12:25:46.941Z,56.74
2019-03-05T12:28:15.871Z,56.77
2019-03-05T12:30:45.628Z,56.27
2019-03-05T12:33:14.261Z,57.09
2019-03-05T12:35:42.894Z,58.52
2019-03-05T12:38:11.763Z,60.33
2019-03-05T12:40:40.486Z,59.12
2019-03-05T12:43:09.190Z,60.67
2019-03-05T12:45:38.347Z,58.97
2019-03-05T12:48:07.000Z,57.75
2019-03-05T12:50:36.191Z,58.06
2019-03-05T12:53:04.974Z,56.83
2019-03-05T12:55:33.708Z,58.61
2019-03-05T12:58:02.985Z,56.54
2019-03-05T13:00:31.663Z,56.58
2019-03-05T13:03:00.322Z,57.14
2019-03-05T13:05:28.936Z,57.84
2019-03-05T13:07:57.997Z,56.70
2019-03-05T13:10:26.633Z,57.91
2019-03-05T13:12:55.384Z,57.55
2019-03-05T13:15:26.290Z,56.48
2019-03-05T13:17:55.233Z,55.98
2019-03-05T13:20:26.242Z,55.92
2019-03-05T13:22:54.690Z,57.60
2019-03-05T13:25:24.249Z,55.75
2019-03-05T13:27:57.575Z,56.97
2019-03-05T13:30:25.842Z,55.67
2019-03-05T13:32:59.206Z,55.03
2019-03-05T13:35:30.081Z,56.92
2019-03-05T13:37:55.832Z,58.98
2019-03-05T13:40:26.874Z,58.25
2019-03-05T13:42:55.764Z,59.04
2019-03-05T13:45:25.347Z,60.02
2019-03-05T13:48:30.382Z,61.69
2019-03-05T13:51:23.151Z,60.26
2019-03-05T13:54:25.582Z,62.01
2019-03-05T13:57:30.402Z,59.71
2019-03-05T13:59:59.548Z,59.46
2019-03-05T14:02:33.380Z,61.26
2019-03-05T14:05:32.766Z,59.51
2019-03-05T14:08:26.270Z,60.19
2019-03-05T14:10:54.854Z,59.31
2019-03-05T14:13:23.775Z,59.62
2019-03-05T14:15:52.566Z,60.60
2019-03-05T14:18:21.208Z,62.80
2019-03-05T14:20:50.065Z,61.65
2019-03-05T14:23:18.662Z,60.30
2019-03-05T14:25:47.335Z,59.72
2019-03-05T14:28:16.043Z,61.22
2019-03-05T14:30:44.871Z,59.84
2019-03-05T14:33:13.754Z,58.86
2019-03-05T14:35:42.835Z,57.85
2019-03-05T14:38:11.526Z,59.36
2019-03-05T14:40:40.639Z,60.18
2019-03-05T14:43:09.351Z,60.83
2019-03-05T14:45:38.303Z,60.33
2019-03-05T14:48:07.016Z,61.44
2019-03-05T14:50:35.847Z,60.08
2019-03-05T14:53:05.088Z,58.67
2019-03-05T14:55:33.699Z,57.76
2019-03-05T14:58:02.642Z,57.76
2019-03-05T15:00:31.214Z,58.60
2019-03-05T15:02:59.874Z,60.45
2019-03-05T15:05:28.447Z,59.89
2019-03-05T15:07:57.202Z,59.14
2019-03-05T15:10:25.874Z,60.56
2019-03-05T15:12:54.814Z,60.02
2019-03-05T15:15:25.885Z,59.02
2019-03-05T15:17:54.816Z,59.14
2019-03-05T15:20:23.952Z,58.74
2019-03-05T15:22:52.768Z,57.33
2019-03-05T15:25:21.634Z,58.13
2019-03-05T15:27:50.388Z,60.59
2019-03-05T15:30:29.578Z,62.62
2019-03-05T15:32:57.811Z,59.74
2019-03-05T15:35:26.802Z,59.77
2019-03-05T15:37:55.596Z,62.55
2019-03-05T15:40:24.938Z,64.73
2019-03-05T15:42:54.010Z,65.30
2019-03-05T15:45:22.847Z,64.67
2019-03-05T15:47:52.043Z,63.94
2019-03-05T15:50:21.219Z,65.42
2019-03-05T15:52:50.030Z,65.06
2019-03-05T15:55:18.813Z,64.68
2019-03-05T15:57:47.628Z,65.71
2019-03-05T16:00:22.252Z,64.64
2019-03-05T16:02:50.955Z,67.14
2019-03-05T16:07:55.207Z,69.33
2019-03-05T16:10:23.906Z,65.10
2019-03-05T16:12:52.532Z,62.31
2019-03-05T16:15:21.546Z,60.35
2019-03-05T16:17:50.278Z,62.38
2019-03-05T16:20:19.180Z,61.75
2019-03-05T16:22:51.135Z,61.25
2019-03-05T16:25:18.913Z,61.34
2019-03-05T16:27:47.684Z,64.12
2019-03-05T16:30:36.741Z,61.78
2019-03-05T16:33:37.073Z,61.56
2019-03-05T16:36:29.159Z,60.42
2019-03-05T16:39:05.052Z,62.22
2019-03-05T16:41:57.408Z,61.75
2019-03-05T16:45:03.465Z,64.57
2019-03-05T16:47:53.162Z,62.49
2019-03-05T16:50:29.032Z,63.58
2019-03-05T16:53:23.139Z,64.08
2019-03-05T16:56:28.589Z,65.12
2019-03-05T16:59:23.911Z,63.04
2019-03-05T17:02:10.245Z,60.37
2019-03-05T17:04:53.969Z,61.66
2019-03-05T17:07:40.171Z,61.00
2019-03-05T17:10:30.053Z,63.72
2019-03-05T17:12:58.889Z,65.53
2019-03-05T17:15:27.538Z,64.65
2019-03-05T17:17:56.123Z,67.66
2019-03-05T17:20:24.977Z,67.08
2019-03-05T17:22:53.597Z,67.12
2019-03-05T17:25:22.413Z,66.94
2019-03-05T17:27:51.017Z,68.70
2019-03-05T17:30:19.923Z,67.34
2019-03-05T17:32:49.159Z,66.63
2019-03-05T17:35:17.890Z,67.66
2019-03-05T17:37:46.840Z,65.83
2019-03-05T17:40:15.775Z,66.03
2019-03-05T17:42:44.352Z,65.62
2019-03-05T17:45:16.111Z,65.98
2019-03-05T17:47:44.759Z,65.95
2019-03-05T17:50:13.469Z,61.25
2019-03-05T17:52:42.234Z,60.95
2019-03-05T17:55:13.596Z,60.90
2019-03-05T17:57:42.687Z,64.46
2019-03-05T18:00:14.801Z,63.51
2019-03-05T18:02:43.700Z,63.56
2019-03-05T18:05:12.900Z,62.11
2019-03-05T18:07:41.740Z,64.29
2019-03-05T18:10:10.538Z,63.40
2019-03-05T18:12:39.351Z,66.73
2019-03-05T18:15:08.838Z,67.02
2019-03-05T18:17:37.449Z,64.11
2019-03-05T18:20:07.731Z,67.47
2019-03-05T18:22:36.339Z,65.30
2019-03-05T18:25:06.082Z,65.44
2019-03-05T18:27:34.766Z,63.36
2019-03-05T18:30:03.694Z,62.96
2019-03-05T18:32:32.462Z,63.37
2019-03-05T18:35:01.071Z,61.50
2019-03-05T18:37:29.759Z,60.12
2019-03-05T18:39:58.379Z,61.19
2019-03-05T18:42:27.173Z,61.44
2019-03-05T18:44:55.745Z,63.94
2019-03-05T18:47:24.337Z,62.77
2019-03-05T18:49:53.712Z,64.58
2019-03-05T18:52:22.366Z,64.73
2019-03-05T18:54:50.941Z,62.99
2019-03-05T18:57:19.795Z,63.18
2019-03-05T18:59:48.431Z,61.50
2019-03-05T19:02:17.205Z,63.09
2019-03-05T19:04:45.799Z,62.30
2019-03-05T19:07:14.555Z,63.07
2019-03-05T19:09:43.126Z,63.57
2019-03-05T19:12:11.727Z,61.80
2019-03-05T19:14:40.499Z,61.27
2019-03-05T19:17:09.094Z,62.42
2019-03-05T19:19:37.960Z,62.64
2019-03-05T19:22:06.623Z,63.10
2019-03-05T19:24:35.228Z,61.73
2019-03-05T19:27:03.898Z,63.69
2019-03-05T19:29:32.486Z,62.42
2019-03-05T19:32:01.115Z,64.00
2019-03-05T19:34:29.720Z,62.04
2019-03-05T19:36:58.505Z,62.20
2019-03-05T19:39:27.537Z,63.99
2019-03-05T19:41:56.631Z,64.04
2019-03-05T19:44:25.206Z,61.89
2019-03-05T19:46:53.944Z,62.70
2019-03-05T19:49:22.532Z,63.72
2019-03-05T19:51:51.359Z,63.18
2019-03-05T19:54:19.979Z,62.93
2019-03-05T19:56:48.561Z,63.09
2019-03-05T19:59:17.294Z,65.40
2019-03-05T20:01:48.463Z,63.73
2019-03-05T20:04:17.076Z,64.67
2019-03-05T20:06:45.725Z,62.86
2019-03-05T20:09:18.931Z,64.54
2019-03-05T20:11:47.529Z,61.79
2019-03-05T20:14:16.112Z,63.04
2019-03-05T20:16:44.727Z,61.85
2019-03-05T20:19:13.315Z,62.93
2019-03-05T20:21:41.987Z,61.53
2019-03-05T20:24:10.660Z,64.12
2019-03-05T20:26:39.533Z,63.25
2019-03-05T20:29:08.375Z,61.52
2019-03-05T20:31:36.964Z,61.21
2019-03-05T20:34:05.864Z,61.14
2019-03-05T20:36:34.764Z,63.77
2019-03-05T20:39:05.101Z,64.08
2019-03-05T20:41:33.713Z,63.41
2019-03-05T20:44:02.346Z,62.24
2019-03-05T20:46:30.941Z,63.05
2019-03-05T20:48:59.631Z,62.25
2019-03-05T20:51:28.222Z,66.98
2019-03-05T20:53:56.974Z,65.72
2019-03-05T20:56:25.582Z,67.15
2019-03-05T20:58:54.168Z,66.95
2019-03-05T21:01:22.856Z,67.34
2019-03-05T21:03:51.436Z,67.75
2019-03-05T21:06:20.628Z,65.61
2019-03-05T21:08:49.553Z,68.14
2019-03-05T21:11:19.092Z,69.02
2019-03-05T21:13:47.680Z,69.01
2019-03-05T21:16:16.259Z,66.39
2019-03-05T21:18:45.209Z,67.77
2019-03-05T21:21:13.824Z,69.82
2019-03-05T21:23:42.504Z,69.02
2019-03-05T21:26:11.541Z,67.50
2019-03-05T21:28:40.151Z,68.63
2019-03-05T21:31:08.958Z,65.56
2019-03-05T21:33:37.543Z,68.15
2019-03-05T21:36:06.273Z,68.33
2019-03-05T21:38:34.957Z,66.77
2019-03-05T21:41:04.068Z,64.53
2019-03-05T21:43:32.882Z,65.44
2019-03-05T21:46:04.706Z,66.96
2019-03-05T21:48:33.287Z,65.30
2019-03-05T21:51:02.123Z,66.72
2019-03-05T21:53:30.962Z,66.47
2019-03-05T21:55:59.612Z,65.81
2019-03-05T21:58:28.206Z,64.42
2019-03-05T22:00:56.880Z,65.79
2019-03-05T22:03:25.750Z,63.21
2019-03-05T22:05:54.411Z,62.82
2019-03-05T22:08:23.267Z,64.55
2019-03-05T22:10:51.918Z,65.60
2019-03-05T22:13:20.777Z,64.13
2019-03-05T22:15:49.617Z,62.62
2019-03-05T22:18:18.199Z,62.76
2019-03-05T22:20:46.794Z,62.09
2019-03-05T22:23:15.384Z,61.93
2019-03-05T22:25:44.234Z,62.51
2019-03-05T22:28:12.830Z,62.36
2019-03-05T22:30:41.477Z,63.79
2019-03-05T22:33:10.252Z,62.90
2019-03-05T22:35:39.070Z,62.92
2019-03-05T22:38:07.894Z,62.59
2019-03-05T22:40:36.565Z,60.11
2019-03-05T22:43:05.262Z,60.87
2019-03-05T22:45:34.385Z,60.15
2019-03-05T22:48:03.011Z,60.96
2019-03-05T22:50:31.605Z,59.38
2019-03-05T22:53:00.304Z,59.21
2019-03-05T22:55:29.298Z,60.69
2019-03-05T22:57:58.302Z,62.53
2019-03-05T23:01:10.883Z,62.62
2019-03-05T23:03:45.923Z,64.23
2019-03-05T23:06:14.518Z,63.08
2019-03-05T23:08:43.205Z,63.02
2019-03-05T23:11:12.127Z,64.97
2019-03-05T23:13:41.682Z,66.23
2019-03-05T23:16:10.359Z,69.20
2019-03-05T23:18:38.998Z,65.71
2019-03-05T23:21:07.945Z,64.91
2019-03-05T23:23:36.653Z,64.29
2019-03-05T23:26:05.677Z,64.03
2019-03-05T23:28:34.244Z,63.60
2019-03-05T23:31:03.410Z,62.62
2019-03-05T23:33:32.091Z,63.80
2019-03-05T23:36:01.378Z,63.39
2019-03-05T23:38:30.294Z,64.53
2019-03-05T23:40:58.933Z,63.84
2019-03-05T23:43:28.563Z,64.02
2019-03-05T23:45:57.185Z,64.00
2019-03-05T23:48:25.765Z,65.48
2019-03-05T23:50:54.399Z,66.70
2019-03-05T23:53:22.987Z,66.42
2019-03-05T23:55:51.606Z,64.60
2019-03-05T23:58:20.184Z,63.75
